Time;durP1;ratioP1;P1;durP2;ratioP2;P2;SDS_P1;SDS_P2;PMS_P1;PMS_P2;Temp;Humidity;BMP_temperature;BMP_pressure;BME280_temperature;BME280_humidity;BME280_pressure;Samples;Min_cycle;Max_cycle;Signal;HPM_P1;HPM_P2
2022/10/23 00:01:00;;;;;;;1.38;0.47;;;14.80;99.90;;;;;;5035769;28;20075;-78
2022/10/23 00:03:26;;;;;;;0.75;0.60;;;14.80;99.90;;;;;;5037997;28;20068;-78
2022/10/23 00:05:53;;;;;;;1.38;0.85;;;14.80;99.90;;;;;;5033184;28;20052;-78
2022/10/23 00:08:20;;;;;;;0.52;0.47;;;14.80;99.90;;;;;;5025558;28;20568;-80
2022/10/23 00:10:47;;;;;;;1.20;0.65;;;14.90;99.90;;;;;;5006451;28;20057;-84
2022/10/23 00:13:13;;;;;;;0.85;0.57;;;14.90;99.90;;;;;;5003674;28;20076;-79
2022/10/23 00:15:40;;;;;;;0.50;0.47;;;14.90;99.90;;;;;;5038857;28;20057;-79
2022/10/23 00:18:07;;;;;;;0.43;0.43;;;14.90;99.90;;;;;;5049673;28;20049;-79
2022/10/23 00:20:34;;;;;;;0.85;0.57;;;14.90;99.90;;;;;;5038114;28;20053;-79
2022/10/23 00:23:01;;;;;;;0.50;0.50;;;14.90;99.90;;;;;;5020112;28;20436;-79
2022/10/23 00:25:28;;;;;;;0.60;0.50;;;14.80;99.90;;;;;;5037042;28;20045;-79
2022/10/23 00:27:55;;;;;;;0.93;0.40;;;14.90;99.90;;;;;;5038714;28;20361;-79
2022/10/23 00:30:21;;;;;;;1.25;0.80;;;14.90;99.90;;;;;;5020719;28;20069;-78
2022/10/23 00:32:48;;;;;;;0.75;0.75;;;14.80;99.90;;;;;;5025488;28;20063;-78
2022/10/23 00:35:15;;;;;;;1.25;0.70;;;14.80;99.90;;;;;;5040741;28;20109;-78
2022/10/23 00:37:42;;;;;;;0.60;0.60;;;14.90;99.90;;;;;;5034055;28;20132;-79
2022/10/23 00:40:10;;;;;;;0.65;0.50;;;14.90;99.90;;;;;;5033709;28;20049;-78
2022/10/23 00:42:37;;;;;;;0.50;0.50;;;14.90;99.90;;;;;;5058208;28;20426;-78
2022/10/23 00:45:16;;;;;;;0.93;0.65;;;14.90;99.90;;;;;;5042527;28;20060;-79
2022/10/23 00:47:43;;;;;;;0.70;0.50;;;14.90;99.90;;;;;;5038261;28;20060;-78
2022/10/23 00:50:10;;;;;;;1.05;0.63;;;14.90;99.90;;;;;;5019842;28;20080;-79
2022/10/23 00:52:40;;;;;;;0.85;0.60;;;14.90;99.90;;;;;;5022405;28;20060;-79
2022/10/23 00:55:07;;;;;;;1.02;0.55;;;14.90;99.90;;;;;;5022984;28;20233;-79
2022/10/23 00:57:34;;;;;;;0.77;0.50;;;14.90;99.90;;;;;;5020191;28;20048;-79
2022/10/23 01:00:00;;;;;;;0.90;0.55;;;14.90;99.90;;;;;;5049730;28;20059;-79
2022/10/23 01:02:27;;;;;;;1.00;0.50;;;14.90;99.90;;;;;;5019877;28;20527;-79
2022/10/23 01:04:54;;;;;;;0.65;0.57;;;14.90;99.90;;;;;;5017027;28;20112;-78
2022/10/23 01:07:29;;;;;;;0.68;0.60;;;14.90;99.90;;;;;;5023736;28;20899;-79
2022/10/23 01:10:07;;;;;;;1.35;0.60;;;14.90;99.90;;;;;;5040107;28;20129;-78
2022/10/23 01:12:46;;;;;;;1.85;0.80;;;14.90;99.90;;;;;;5025563;28;20158;-78
2022/10/23 01:15:28;;;;;;;0.90;0.60;;;14.90;99.90;;;;;;5010362;28;20132;-78
2022/10/23 01:18:00;;;;;;;0.52;0.40;;;14.90;99.90;;;;;;5008576;28;20077;-78
2022/10/23 01:20:36;;;;;;;0.95;0.63;;;15.00;99.90;;;;;;5033188;28;20053;-78
2022/10/23 01:23:25;;;;;;;1.48;0.90;;;15.00;99.90;;;;;;5033754;28;20052;-78
2022/10/23 01:25:58;;;;;;;0.70;0.50;;;15.00;99.90;;;;;;5043442;28;20049;-79
2022/10/23 01:28:32;;;;;;;0.82;0.80;;;15.00;99.90;;;;;;5042492;28;20119;-79
2022/10/23 01:30:59;;;;;;;0.85;0.47;;;15.00;99.90;;;;;;5014030;28;20040;-78
2022/10/23 01:33:46;;;;;;;1.42;0.80;;;15.00;99.90;;;;;;5030692;28;20049;-78
2022/10/23 01:36:14;;;;;;;0.85;0.55;;;15.00;99.90;;;;;;5023517;28;20045;-79
2022/10/23 01:39:01;;;;;;;0.90;0.60;;;15.00;99.90;;;;;;5032062;28;20056;-78
2022/10/23 01:41:34;;;;;;;0.40;0.40;;;15.10;99.90;;;;;;5045135;28;20057;-78
2022/10/23 01:44:08;;;;;;;0.98;0.70;;;15.10;99.90;;;;;;5041693;28;20103;-79
2022/10/23 01:46:36;;;;;;;0.70;0.57;;;15.10;99.90;;;;;;5008537;28;20049;-79
2022/10/23 01:49:04;;;;;;;1.85;0.65;;;15.10;99.90;;;;;;5032705;28;20056;-78
2022/10/23 01:51:31;;;;;;;0.60;0.60;;;15.10;99.90;;;;;;5008204;28;20056;-78
2022/10/23 01:53:58;;;;;;;0.90;0.65;;;15.10;99.90;;;;;;5025853;28;20045;-78
2022/10/23 01:56:30;;;;;;;1.13;0.75;;;15.10;99.90;;;;;;5024877;28;20049;-79
2022/10/23 01:58:57;;;;;;;1.00;0.68;;;15.10;99.90;;;;;;5047747;28;20490;-78
2022/10/23 02:01:25;;;;;;;1.25;0.60;;;15.10;99.90;;;;;;5036198;28;20128;-80
2022/10/23 02:03:52;;;;;;;0.73;0.70;;;15.10;99.90;;;;;;5027005;28;20053;-78
2022/10/23 02:06:19;;;;;;;0.50;0.50;;;15.10;99.90;;;;;;5027642;28;20053;-79
2022/10/23 02:08:45;;;;;;;0.52;0.52;;;15.20;99.90;;;;;;5044218;28;20725;-79
2022/10/23 02:11:13;;;;;;;0.60;0.60;;;15.20;99.90;;;;;;5044808;28;20052;-79
2022/10/23 02:13:58;;;;;;;1.42;0.73;;;15.20;99.90;;;;;;5026148;28;20084;-79
2022/10/23 02:16:29;;;;;;;0.70;0.60;;;15.20;99.90;;;;;;5042337;28;20048;-79
2022/10/23 02:19:14;;;;;;;0.88;0.55;;;15.20;99.90;;;;;;5040931;28;20140;-79
2022/10/23 02:22:24;;;;;;;0.63;0.60;;;15.20;99.90;;;;;;5041141;28;20045;-78
2022/10/23 02:25:08;;;;;;;1.17;0.60;;;15.20;99.90;;;;;;5024007;28;20045;-79
2022/10/23 02:27:41;;;;;;;1.23;0.82;;;15.20;99.90;;;;;;5044547;28;20049;-79
2022/10/23 02:30:09;;;;;;;2.03;0.82;;;15.20;99.90;;;;;;5023998;28;20063;-79
2022/10/23 02:32:37;;;;;;;1.23;0.70;;;15.20;99.90;;;;;;5003489;28;20119;-79
2022/10/23 02:35:05;;;;;;;1.33;0.63;;;15.20;99.90;;;;;;5007070;28;20048;-79
2022/10/23 02:37:32;;;;;;;1.52;0.90;;;15.10;99.90;;;;;;5024976;28;20083;-79
2022/10/23 02:39:59;;;;;;;0.85;0.50;;;15.20;99.90;;;;;;5043183;28;20067;-79
2022/10/23 02:42:28;;;;;;;0.50;0.50;;;15.20;99.90;;;;;;5026194;28;20500;-79
2022/10/23 02:45:05;;;;;;;0.80;0.55;;;15.20;99.90;;;;;;5027384;28;20060;-79
2022/10/23 02:47:35;;;;;;;1.05;0.60;;;15.20;99.90;;;;;;5042939;28;20049;-79
2022/10/23 02:50:20;;;;;;;0.40;0.40;;;15.20;99.90;;;;;;5044105;28;20230;-80
2022/10/23 02:52:53;;;;;;;1.17;0.70;;;15.20;99.90;;;;;;5040133;28;20053;-79
2022/10/23 02:55:29;;;;;;;2.35;0.95;;;15.20;99.90;;;;;;5024990;28;20060;-78
2022/10/23 02:58:36;;;;;;;2.08;0.70;;;15.20;99.90;;;;;;5023567;28;20057;-79
2022/10/23 03:01:06;;;;;;;1.25;0.82;;;15.20;99.90;;;;;;5027183;28;20864;-79
2022/10/23 03:03:57;;;;;;;0.70;0.60;;;15.20;99.90;;;;;;5050037;28;20098;-79
2022/10/23 03:06:24;;;;;;;0.50;0.50;;;15.20;99.90;;;;;;5042440;28;20053;-78
2022/10/23 03:08:53;;;;;;;1.30;0.60;;;15.20;99.90;;;;;;5042310;28;20055;-79
2022/10/23 03:11:20;;;;;;;0.55;0.55;;;15.20;99.90;;;;;;5043605;28;20045;-79
2022/10/23 03:13:47;;;;;;;0.52;0.50;;;15.20;99.90;;;;;;5030324;28;20052;-79
2022/10/23 03:16:14;;;;;;;0.90;0.73;;;15.10;99.90;;;;;;5044498;28;20053;-79
2022/10/23 03:18:40;;;;;;;0.77;0.60;;;15.10;99.90;;;;;;5045870;28;20044;-79
2022/10/23 03:21:07;;;;;;;1.10;0.90;;;15.10;99.90;;;;;;5044593;28;20129;-79
2022/10/23 03:23:34;;;;;;;0.85;0.60;;;15.10;99.90;;;;;;5040876;28;20243;-79
2022/10/23 03:26:01;;;;;;;0.75;0.60;;;15.10;99.90;;;;;;5026646;28;20072;-79
2022/10/23 03:28:28;;;;;;;0.93;0.50;;;15.10;99.90;;;;;;5034462;28;20055;-79
2022/10/23 03:30:55;;;;;;;0.82;0.55;;;15.10;99.90;;;;;;5044235;28;20049;-79
2022/10/23 03:33:21;;;;;;;0.75;0.40;;;15.10;99.90;;;;;;5040095;28;20512;-78
2022/10/23 03:35:48;;;;;;;0.77;0.50;;;15.20;99.90;;;;;;5040830;28;20059;-79
2022/10/23 03:38:15;;;;;;;0.55;0.55;;;15.10;99.90;;;;;;5045302;28;20076;-79
2022/10/23 03:40:42;;;;;;;0.77;0.60;;;15.20;99.90;;;;;;5040752;28;20047;-79
2022/10/23 03:43:09;;;;;;;1.60;0.80;;;15.20;99.90;;;;;;5046930;28;20049;-78
2022/10/23 03:45:37;;;;;;;0.70;0.65;;;15.20;99.90;;;;;;5012518;28;20059;-80
2022/10/23 03:48:07;;;;;;;1.23;0.60;;;15.10;99.90;;;;;;5040659;28;20053;-78
2022/10/23 03:50:34;;;;;;;0.57;0.40;;;15.10;99.90;;;;;;5039567;28;20045;-78
2022/10/23 03:53:01;;;;;;;0.73;0.45;;;15.10;99.90;;;;;;5039122;28;20063;-78
2022/10/23 03:55:27;;;;;;;0.65;0.55;;;15.10;99.90;;;;;;5046635;28;20049;-78
2022/10/23 03:57:54;;;;;;;0.60;0.43;;;15.10;99.90;;;;;;5028324;28;20144;-78
2022/10/23 04:00:21;;;;;;;0.95;0.68;;;15.10;99.90;;;;;;5027679;28;20046;-78
2022/10/23 04:02:48;;;;;;;0.80;0.60;;;15.10;99.90;;;;;;5039829;28;20057;-78
2022/10/23 04:05:15;;;;;;;0.35;0.35;;;15.10;99.90;;;;;;5025158;28;20045;-78
2022/10/23 04:07:42;;;;;;;0.73;0.50;;;15.10;99.90;;;;;;5010907;28;20049;-78
2022/10/23 04:10:09;;;;;;;0.95;0.55;;;15.20;99.90;;;;;;5045468;28;20132;-78
2022/10/23 04:12:35;;;;;;;0.85;0.60;;;15.20;99.90;;;;;;5043362;28;20041;-80
2022/10/23 04:15:02;;;;;;;0.60;0.60;;;15.20;99.90;;;;;;5045936;28;20120;-78
2022/10/23 04:17:29;;;;;;;1.05;0.82;;;15.20;99.90;;;;;;5023705;28;20053;-78
2022/10/23 04:19:56;;;;;;;0.73;0.52;;;15.20;99.90;;;;;;5001869;28;20063;-81
2022/10/23 04:22:23;;;;;;;1.33;0.60;;;15.20;99.90;;;;;;5043665;28;20057;-78
2022/10/23 04:24:54;;;;;;;0.90;0.60;;;15.20;99.90;;;;;;5046222;28;20049;-78
2022/10/23 04:27:20;;;;;;;1.15;0.60;;;15.20;99.90;;;;;;5044518;28;20052;-78
2022/10/23 04:29:48;;;;;;;0.47;0.47;;;15.20;99.90;;;;;;5040951;28;20045;-78
2022/10/23 04:32:14;;;;;;;1.20;0.70;;;15.20;99.90;;;;;;5054794;28;20080;-79
2022/10/23 04:34:41;;;;;;;1.35;0.90;;;15.20;99.90;;;;;;5027335;28;20059;-79
2022/10/23 04:37:08;;;;;;;1.48;0.60;;;15.20;99.90;;;;;;5043241;28;20147;-79
2022/10/23 04:39:35;;;;;;;1.42;0.70;;;15.20;99.90;;;;;;5027561;28;20037;-79
2022/10/23 04:42:02;;;;;;;1.05;0.60;;;15.20;99.90;;;;;;5045482;28;20056;-80
2022/10/23 04:44:28;;;;;;;1.05;0.63;;;15.20;99.90;;;;;;5046760;28;20045;-79
2022/10/23 04:46:55;;;;;;;1.13;0.55;;;15.20;99.90;;;;;;5031249;28;20053;-79
2022/10/23 04:49:22;;;;;;;0.70;0.60;;;15.20;99.90;;;;;;5042970;28;20055;-79
2022/10/23 04:51:49;;;;;;;0.75;0.60;;;15.30;99.90;;;;;;5054932;28;20041;-79
2022/10/23 04:54:16;;;;;;;1.20;0.63;;;15.30;99.90;;;;;;5050098;28;20140;-79
2022/10/23 04:56:42;;;;;;;0.95;0.60;;;15.30;99.90;;;;;;5047514;28;20854;-79
2022/10/23 04:59:10;;;;;;;0.40;0.38;;;15.30;99.90;;;;;;5028105;28;20045;-79
2022/10/23 05:01:36;;;;;;;0.60;0.57;;;15.30;99.90;;;;;;5028698;28;20055;-79
2022/10/23 05:04:03;;;;;;;0.50;0.50;;;15.30;99.90;;;;;;5006492;28;20053;-80
2022/10/23 05:06:30;;;;;;;0.85;0.80;;;15.30;99.90;;;;;;5025027;28;20099;-79
2022/10/23 05:08:57;;;;;;;0.63;0.50;;;15.30;99.90;;;;;;5043324;28;20150;-79
2022/10/23 05:11:24;;;;;;;0.43;0.40;;;15.30;99.90;;;;;;5045279;28;20191;-79
2022/10/23 05:13:51;;;;;;;0.75;0.50;;;15.30;99.90;;;;;;5038431;28;20053;-78
2022/10/23 05:16:38;;;;;;;0.55;0.50;;;15.30;99.90;;;;;;5032596;28;20554;-80
2022/10/23 05:19:06;;;;;;;0.50;0.40;;;15.30;99.90;;;;;;5006267;28;20141;-79
2022/10/23 05:21:34;;;;;;;1.05;0.57;;;15.40;99.90;;;;;;5043227;28;20056;-79
2022/10/23 05:24:01;;;;;;;0.57;0.45;;;15.40;99.90;;;;;;5038037;28;20083;-79
2022/10/23 05:26:29;;;;;;;0.82;0.68;;;15.40;99.90;;;;;;5022850;28;20103;-79
2022/10/23 05:28:56;;;;;;;0.40;0.40;;;15.40;99.90;;;;;;5030262;28;20045;-79
2022/10/23 05:31:23;;;;;;;0.70;0.52;;;15.40;99.90;;;;;;5054512;28;20048;-80
2022/10/23 05:33:51;;;;;;;0.50;0.50;;;15.50;99.90;;;;;;5043854;28;20049;-80
2022/10/23 05:36:18;;;;;;;0.40;0.40;;;15.50;99.90;;;;;;5010083;28;20388;-79
2022/10/23 05:38:45;;;;;;;0.65;0.50;;;15.50;99.90;;;;;;5042527;28;20079;-80
2022/10/23 05:41:12;;;;;;;1.27;0.60;;;15.60;99.90;;;;;;5023055;28;20047;-79
2022/10/23 05:43:39;;;;;;;1.83;1.23;;;15.60;99.90;;;;;;5019585;28;20457;-79
2022/10/23 05:46:06;;;;;;;1.45;1.10;;;15.60;99.90;;;;;;5020838;28;20064;-79
2022/10/23 05:48:33;;;;;;;1.55;1.05;;;15.60;99.90;;;;;;5009713;28;20056;-79
2022/10/23 05:51:05;;;;;;;0.75;0.75;;;15.60;99.90;;;;;;5027954;28;20053;-79
2022/10/23 05:53:31;;;;;;;1.15;1.02;;;15.60;99.90;;;;;;5007242;28;20049;-80
2022/10/23 05:56:08;;;;;;;1.40;1.10;;;15.60;99.90;;;;;;5036893;28;20510;-79
2022/10/23 05:58:34;;;;;;;1.27;0.90;;;15.60;99.90;;;;;;5044733;28;20048;-79
2022/10/23 06:01:08;;;;;;;2.60;0.82;;;15.60;99.90;;;;;;5026735;28;20080;-79
2022/10/23 06:03:35;;;;;;;0.93;0.70;;;15.60;99.90;;;;;;5044458;28;20419;-79
2022/10/23 06:06:02;;;;;;;0.95;0.85;;;15.60;99.90;;;;;;5043297;28;20072;-79
2022/10/23 06:08:29;;;;;;;1.70;0.70;;;15.60;99.90;;;;;;5045036;28;20136;-78
2022/10/23 06:10:56;;;;;;;1.45;1.00;;;15.50;99.90;;;;;;5044811;28;20543;-78
2022/10/23 06:13:23;;;;;;;1.52;0.80;;;15.50;99.90;;;;;;5006611;28;20363;-79
2022/10/23 06:15:50;;;;;;;1.63;1.30;;;15.50;99.90;;;;;;5024287;28;20045;-78
2022/10/23 06:18:16;;;;;;;1.45;0.77;;;15.50;99.90;;;;;;5025044;28;20091;-79
2022/10/23 06:20:43;;;;;;;1.10;0.90;;;15.60;99.90;;;;;;5039890;28;20045;-78
2022/10/23 06:23:10;;;;;;;1.27;0.90;;;15.60;99.90;;;;;;5036640;28;20067;-76
2022/10/23 06:25:37;;;;;;;1.25;0.82;;;15.60;99.90;;;;;;5022169;28;20056;-76
2022/10/23 06:28:03;;;;;;;0.88;0.63;;;15.60;99.90;;;;;;5040983;28;20048;-76
2022/10/23 06:30:30;;;;;;;1.42;0.90;;;15.70;99.90;;;;;;5043898;28;20045;-77
2022/10/23 06:32:57;;;;;;;0.90;0.68;;;15.70;99.90;;;;;;5044272;28;20110;-77
2022/10/23 06:35:30;;;;;;;1.47;0.90;;;15.70;99.90;;;;;;5039534;28;20052;-78
2022/10/23 06:37:57;;;;;;;0.88;0.55;;;15.70;99.90;;;;;;5041694;28;20286;-78
2022/10/23 06:40:23;;;;;;;1.25;0.70;;;15.70;99.90;;;;;;5044311;28;20120;-78
2022/10/23 06:42:50;;;;;;;1.77;0.70;;;15.80;99.90;;;;;;5049459;28;21676;-79
2022/10/23 06:45:17;;;;;;;0.93;0.60;;;15.80;99.90;;;;;;5020702;28;20439;-80
2022/10/23 06:47:44;;;;;;;1.45;0.90;;;15.80;99.90;;;;;;5036629;28;20059;-81
2022/10/23 06:50:11;;;;;;;0.70;0.60;;;15.80;99.90;;;;;;5039550;28;20079;-82
2022/10/23 06:52:41;;;;;;;0.80;0.70;;;15.70;99.90;;;;;;5021778;28;20049;-84
2022/10/23 06:55:13;;;;;;;0.77;0.60;;;15.60;99.90;;;;;;5026333;28;20420;-83
2022/10/23 06:57:40;;;;;;;1.08;0.82;;;15.50;99.90;;;;;;5039769;28;20087;-83
2022/10/23 07:00:08;;;;;;;1.95;0.80;;;15.50;99.90;;;;;;5027071;28;20052;-81
2022/10/23 07:02:35;;;;;;;1.80;1.00;;;15.50;99.90;;;;;;5020219;28;20056;-81
2022/10/23 07:05:02;;;;;;;0.95;0.80;;;15.50;99.90;;;;;;5035309;28;20049;-81
2022/10/23 07:07:29;;;;;;;1.13;0.80;;;15.40;99.90;;;;;;5022410;28;20053;-82
2022/10/23 07:09:56;;;;;;;0.65;0.60;;;15.40;99.90;;;;;;5042776;28;20048;-82
2022/10/23 07:12:23;;;;;;;1.52;0.80;;;15.40;99.90;;;;;;5025149;28;20665;-82
2022/10/23 07:14:50;;;;;;;1.23;0.77;;;15.40;99.90;;;;;;5042834;28;20353;-81
2022/10/23 07:17:17;;;;;;;0.75;0.60;;;15.40;99.90;;;;;;5042539;28;20052;-81
2022/10/23 07:19:45;;;;;;;1.45;0.80;;;15.40;99.90;;;;;;5039372;28;20135;-81
2022/10/23 07:22:12;;;;;;;1.40;1.08;;;15.40;99.90;;;;;;5009055;28;20059;-82
2022/10/23 07:24:41;;;;;;;1.48;1.17;;;15.30;99.90;;;;;;5038972;28;20079;-83
2022/10/23 07:27:08;;;;;;;1.98;1.13;;;15.30;99.90;;;;;;5007156;28;20051;-82
2022/10/23 07:29:35;;;;;;;1.40;1.30;;;15.30;99.90;;;;;;5035166;28;20057;-82
2022/10/23 07:32:03;;;;;;;2.17;1.50;;;15.30;99.90;;;;;;5028036;28;20522;-85
2022/10/23 07:34:30;;;;;;;2.15;1.45;;;15.30;99.90;;;;;;5006745;28;20128;-80
2022/10/23 07:36:57;;;;;;;1.92;1.00;;;15.30;99.90;;;;;;5021554;28;20045;-80
2022/10/23 07:39:24;;;;;;;1.48;0.82;;;15.40;99.90;;;;;;5024275;28;20502;-81
2022/10/23 07:41:51;;;;;;;1.25;0.90;;;15.40;99.90;;;;;;5045107;28;20047;-81
2022/10/23 07:44:18;;;;;;;1.30;0.90;;;15.40;99.90;;;;;;5046009;28;20092;-83
2022/10/23 07:46:49;;;;;;;1.35;0.80;;;15.50;99.90;;;;;;5038253;28;20491;-81
2022/10/23 07:49:17;;;;;;;1.13;0.80;;;15.50;99.90;;;;;;5036180;28;20065;-82
2022/10/23 07:51:44;;;;;;;0.93;0.82;;;15.50;99.90;;;;;;5005894;28;20778;-82
2022/10/23 07:54:17;;;;;;;;;;;15.50;99.90;;;;;;5041966;28;20072;-82
2022/10/23 07:56:44;;;;;;;1.02;0.73;;;15.60;99.90;;;;;;5025927;28;19921;-81
2022/10/23 07:59:11;;;;;;;0.80;0.63;;;15.60;99.90;;;;;;5039419;28;20079;-82
2022/10/23 08:01:39;;;;;;;0.63;0.55;;;15.70;99.90;;;;;;5024104;28;20085;-81
2022/10/23 08:04:05;;;;;;;2.08;1.00;;;15.70;99.90;;;;;;5041437;28;20169;-79
2022/10/23 08:06:34;;;;;;;0.52;0.52;;;15.80;99.90;;;;;;5041859;28;20408;-77
2022/10/23 08:09:01;;;;;;;0.70;0.60;;;15.80;99.90;;;;;;5026337;28;20612;-79
2022/10/23 08:11:34;;;;;;;1.13;0.70;;;15.80;99.90;;;;;;5026568;28;20059;-79
2022/10/23 08:14:03;;;;;;;0.60;0.50;;;15.80;99.90;;;;;;5023481;28;20049;-78
2022/10/23 08:16:34;;;;;;;0.82;0.52;;;15.80;99.90;;;;;;5040810;28;20049;-81
2022/10/23 08:19:01;;;;;;;1.60;0.80;;;15.90;99.90;;;;;;5042873;28;20053;-77
2022/10/23 08:21:27;;;;;;;2.03;1.10;;;15.90;99.90;;;;;;5047404;28;20071;-76
2022/10/23 08:23:55;;;;;;;1.52;1.15;;;15.90;99.90;;;;;;5030633;28;20098;-77
2022/10/23 08:26:23;;;;;;;3.05;1.10;;;15.90;99.90;;;;;;5048879;28;20444;-77
2022/10/23 08:28:51;;;;;;;1.15;0.88;;;16.00;99.90;;;;;;5047327;28;20148;-76
2022/10/23 08:31:19;;;;;;;1.10;0.70;;;16.00;99.90;;;;;;5041922;28;20119;-77
2022/10/23 08:33:46;;;;;;;1.77;0.98;;;16.10;99.90;;;;;;5047434;28;20167;-78
2022/10/23 08:36:23;;;;;;;0.80;0.70;;;16.10;99.90;;;;;;5056512;28;20291;-79
2022/10/23 08:38:52;;;;;;;1.25;1.10;;;16.10;99.90;;;;;;5041635;28;20048;-79
2022/10/23 08:41:23;;;;;;;1.23;0.52;;;16.00;99.90;;;;;;5042315;28;20071;-79
2022/10/23 08:43:57;;;;;;;1.48;0.80;;;16.00;99.90;;;;;;5042958;28;20141;-79
2022/10/23 08:46:26;;;;;;;1.42;0.90;;;16.00;99.90;;;;;;5025788;28;20132;-79
2022/10/23 08:48:56;;;;;;;0.95;0.68;;;16.00;99.90;;;;;;5042416;28;20477;-79
2022/10/23 08:51:33;;;;;;;0.57;0.57;;;16.00;99.90;;;;;;5041717;28;20049;-80
2022/10/23 08:54:07;;;;;;;1.17;0.82;;;16.00;99.90;;;;;;5021648;28;20067;-81
2022/10/23 08:56:36;;;;;;;0.73;0.60;;;16.00;99.90;;;;;;5034904;28;20884;-83
2022/10/23 08:59:13;;;;;;;1.50;0.80;;;15.90;99.90;;;;;;5041477;28;20061;-83
2022/10/23 09:01:46;;;;;;;1.25;0.85;;;15.90;99.90;;;;;;5042620;28;20492;-82
2022/10/23 09:04:13;;;;;;;0.90;0.70;;;15.80;99.90;;;;;;5023768;28;20072;-82
2022/10/23 09:06:48;;;;;;;1.30;0.68;;;15.90;99.90;;;;;;5024523;28;20094;-82
2022/10/23 09:09:38;;;;;;;1.02;0.80;;;15.90;99.90;;;;;;5042657;28;20105;-81
2022/10/23 09:12:21;;;;;;;0.70;0.70;;;15.90;99.90;;;;;;5038158;28;20064;-82
2022/10/23 09:14:48;;;;;;;0.73;0.60;;;16.00;99.90;;;;;;5011201;28;20075;-82
2022/10/23 09:17:24;;;;;;;1.00;0.80;;;16.00;99.90;;;;;;5043316;28;20434;-82
2022/10/23 09:20:28;;;;;;;1.17;0.73;;;16.10;99.90;;;;;;5042345;28;20044;-80
2022/10/23 09:23:00;;;;;;;0.50;0.50;;;16.10;99.90;;;;;;5005335;28;20503;-82
2022/10/23 09:25:30;;;;;;;1.40;0.70;;;16.20;99.90;;;;;;5009532;28;20064;-85
2022/10/23 09:27:58;;;;;;;0.90;0.70;;;16.30;99.90;;;;;;4994776;28;20516;-84
2022/10/23 09:30:32;;;;;;;;;;;16.40;99.90;;;;;;5042515;28;20083;-84
2022/10/23 09:33:00;;;;;;;1.52;0.85;;;16.50;99.90;;;;;;5040375;28;20084;-83
2022/10/23 09:35:28;;;;;;;0.65;0.57;;;16.60;99.90;;;;;;5006118;28;20945;-83
2022/10/23 09:37:55;;;;;;;1.40;0.65;;;16.60;99.90;;;;;;5019901;28;20056;-83
2022/10/23 09:40:41;;;;;;;0.90;0.70;;;16.70;99.90;;;;;;5023252;28;20052;-83
2022/10/23 09:43:16;;;;;;;1.15;0.90;;;16.70;99.90;;;;;;5010232;28;20452;-82
2022/10/23 09:45:54;;;;;;;1.58;1.05;;;16.70;99.90;;;;;;5003516;28;20053;-84
2022/10/23 09:48:21;;;;;;;1.10;0.85;;;16.70;99.90;;;;;;5008086;28;20330;-84
2022/10/23 09:50:53;;;;;;;1.27;0.68;;;16.70;99.90;;;;;;4999390;28;20140;-83
2022/10/23 09:53:30;;;;;;;0.93;0.70;;;16.70;99.90;;;;;;5015032;28;20186;-83
2022/10/23 09:56:00;;;;;;;0.60;0.60;;;16.80;99.90;;;;;;5039959;28;20064;-81
2022/10/23 09:58:33;;;;;;;1.00;0.80;;;16.90;99.90;;;;;;5035660;28;20930;-82
2022/10/23 10:00:59;;;;;;;1.33;0.93;;;16.90;99.90;;;;;;5016648;28;20060;-81
2022/10/23 10:03:26;;;;;;;0.82;0.80;;;17.00;99.90;;;;;;5047859;28;20056;-82
2022/10/23 10:06:03;;;;;;;1.27;0.93;;;17.00;99.90;;;;;;5053782;28;20060;-81
2022/10/23 10:08:45;;;;;;;1.27;0.77;;;17.10;99.90;;;;;;5037620;28;20746;-82
2022/10/23 10:11:16;;;;;;;1.10;0.90;;;17.10;99.90;;;;;;5050833;28;20307;-81
2022/10/23 10:13:49;;;;;;;0.40;0.40;;;17.20;99.90;;;;;;5039794;28;20041;-80
2022/10/23 10:16:36;;;;;;;0.55;0.50;;;17.20;99.90;;;;;;5039816;28;20397;-82
2022/10/23 10:19:15;;;;;;;1.00;0.65;;;17.20;99.90;;;;;;5020557;28;20057;-84
2022/10/23 10:22:08;;;;;;;0.57;0.50;;;17.20;99.90;;;;;;5018358;28;20056;-84
2022/10/23 10:24:45;;;;;;;0.20;0.20;;;17.20;99.90;;;;;;5020850;28;20049;-83
2022/10/23 10:27:50;;;;;;;0.70;0.55;;;17.10;99.90;;;;;;5040398;28;20048;-85
2022/10/23 10:30:21;;;;;;;1.10;0.60;;;17.00;99.90;;;;;;5038929;28;20431;-88
2022/10/23 10:32:54;;;;;;;0.80;0.70;;;16.80;99.90;;;;;;5009809;28;20531;-88
2022/10/23 10:35:26;;;;;;;;;;;16.80;99.90;;;;;;5042754;28;20099;-85
2022/10/23 10:38:13;;;;;;;0.82;0.50;;;16.70;99.90;;;;;;5020882;28;19935;-85
2022/10/23 10:40:42;;;;;;;0.40;0.40;;;16.70;99.90;;;;;;5016685;28;20059;-79
2022/10/23 10:43:56;;;;;;;0.55;0.32;;;16.70;99.90;;;;;;5021154;28;20076;-82
2022/10/23 10:46:35;;;;;;;0.70;0.50;;;16.80;99.90;;;;;;5032569;28;20048;-81
2022/10/23 10:49:17;;;;;;;0.60;0.52;;;16.90;99.90;;;;;;5034862;28;20053;-82
2022/10/23 10:51:56;;;;;;;0.63;0.60;;;17.20;99.90;;;;;;5018870;28;20045;-88
2022/10/23 10:54:42;;;;;;;0.50;0.50;;;17.20;99.90;;;;;;5057209;28;20060;-86
2022/10/23 10:57:31;;;;;;;0.88;0.70;;;17.40;99.90;;;;;;5005434;28;20400;-87
2022/10/23 11:00:24;;;;;;;1.10;0.80;;;17.70;99.90;;;;;;5025208;28;20148;-88
2022/10/23 11:02:51;;;;;;;1.10;0.68;;;18.00;99.90;;;;;;5008196;28;20476;-88
2022/10/23 11:05:53;;;;;;;0.40;0.40;;;18.20;99.90;;;;;;5037996;28;20465;-87
2022/10/23 11:08:33;;;;;;;1.00;0.68;;;18.40;99.90;;;;;;5016108;28;20046;-88
2022/10/23 11:11:47;;;;;;;0.90;0.60;;;18.50;99.90;;;;;;5039023;28;20057;-87
2022/10/23 11:14:18;;;;;;;0.65;0.63;;;18.50;99.90;;;;;;5021175;28;20072;-87
2022/10/23 11:17:11;;;;;;;1.10;0.50;;;18.50;99.90;;;;;;5002247;28;20061;-86
2022/10/23 11:19:59;;;;;;;0.68;0.50;;;18.50;99.90;;;;;;5009002;28;20132;-86
2022/10/23 11:22:36;;;;;;;0.60;0.60;;;18.50;99.90;;;;;;4994611;28;20077;-87
2022/10/23 11:25:34;;;;;;;0.68;0.50;;;18.60;99.90;;;;;;5042963;28;20074;-85
2022/10/23 11:28:12;;;;;;;0.40;0.40;;;18.80;99.90;;;;;;5039235;28;20140;-86
2022/10/23 11:30:46;;;;;;;0.40;0.40;;;18.90;99.90;;;;;;5032844;28;20356;-86
2022/10/23 11:33:30;;;;;;;0.65;0.50;;;19.00;99.90;;;;;;5017509;28;20049;-86
2022/10/23 11:36:24;;;;;;;0.90;0.50;;;19.00;99.90;;;;;;5001361;28;20053;-85
2022/10/23 11:38:57;;;;;;;0.75;0.60;;;18.90;99.90;;;;;;5012803;28;20049;-85
2022/10/23 11:41:28;;;;;;;0.77;0.55;;;19.10;99.90;;;;;;5003820;28;20054;-87
2022/10/23 11:44:00;;;;;;;1.13;0.60;;;19.20;99.90;;;;;;5038745;28;20091;-87
2022/10/23 11:46:34;;;;;;;0.80;0.63;;;19.20;99.90;;;;;;5001859;28;20512;-86
2022/10/23 11:49:04;;;;;;;1.80;0.88;;;19.20;99.90;;;;;;4986602;28;20440;-84
2022/10/23 11:51:32;;;;;;;0.93;0.77;;;19.10;99.90;;;;;;5005503;28;20564;-85
2022/10/23 11:54:14;;;;;;;0.70;0.63;;;19.20;99.90;;;;;;5034808;28;20057;-85
2022/10/23 11:57:14;;;;;;;1.67;0.80;;;19.20;99.90;;;;;;5027205;28;20311;-85
2022/10/23 11:59:47;;;;;;;1.52;0.80;;;19.40;99.90;;;;;;5034217;28;20168;-86
2022/10/23 12:02:27;;;;;;;0.68;0.60;;;19.70;99.90;;;;;;5036453;28;20075;-84
2022/10/23 12:04:55;;;;;;;1.33;0.50;;;19.80;99.90;;;;;;5017524;28;20072;-85
2022/10/23 12:07:27;;;;;;;1.95;0.80;;;19.90;99.90;;;;;;5003048;28;20049;-86
2022/10/23 12:10:25;;;;;;;1.40;0.70;;;20.00;99.90;;;;;;5040851;28;20220;-86
2022/10/23 12:12:59;;;;;;;1.05;0.68;;;20.30;99.90;;;;;;5019654;28;20061;-84
2022/10/23 12:15:27;;;;;;;1.55;0.77;;;20.50;99.90;;;;;;5002502;28;20466;-83
2022/10/23 12:17:55;;;;;;;0.70;0.68;;;20.70;99.90;;;;;;5036575;28;20466;-83
2022/10/23 12:20:36;;;;;;;1.45;1.00;;;21.00;99.90;;;;;;5053094;28;20456;-84
2022/10/23 12:23:25;;;;;;;1.05;0.88;;;21.60;99.90;;;;;;4999264;28;20673;-84
2022/10/23 12:26:19;;;;;;;0.90;0.70;;;22.40;99.90;;;;;;5051124;28;20049;-83
2022/10/23 12:29:09;;;;;;;1.50;0.90;;;22.80;99.90;;;;;;5037960;28;20053;-84
2022/10/23 12:31:45;;;;;;;0.80;0.70;;;23.10;99.90;;;;;;5017598;28;20063;-83
2022/10/23 12:34:35;;;;;;;1.08;0.80;;;23.40;99.90;;;;;;5035620;28;20072;-83
2022/10/23 12:37:11;;;;;;;1.05;0.70;;;23.60;99.90;;;;;;5034663;28;20423;-83
2022/10/23 12:39:39;;;;;;;1.70;0.80;;;23.80;99.90;;;;;;5032501;28;20045;-83
2022/10/23 12:42:16;;;;;;;1.65;0.98;;;23.30;99.90;;;;;;5035645;28;20080;-84
2022/10/23 12:44:43;;;;;;;2.10;0.70;;;22.70;99.90;;;;;;5018257;28;20049;-87
2022/10/23 12:47:15;;;;;;;0.65;0.60;;;22.60;99.90;;;;;;4999634;28;20413;-83
2022/10/23 12:50:08;;;;;;;1.45;1.05;;;22.90;99.90;;;;;;5002428;28;20041;-82
2022/10/23 12:52:38;;;;;;;1.27;1.00;;;23.10;99.90;;;;;;5015348;28;20056;-82
2022/10/23 12:55:14;;;;;;;1.25;0.73;;;23.50;99.90;;;;;;5020187;28;20044;-82
2022/10/23 12:57:41;;;;;;;1.55;1.00;;;23.60;99.90;;;;;;5030203;28;20041;-82
2022/10/23 13:00:09;;;;;;;1.52;0.80;;;23.70;99.90;;;;;;5032929;28;20139;-82
2022/10/23 13:02:36;;;;;;;1.25;0.95;;;24.30;99.90;;;;;;5035029;28;20125;-82
2022/10/23 13:05:05;;;;;;;1.33;1.00;;;24.70;99.90;;;;;;5019768;28;20045;-82
2022/10/23 13:07:37;;;;;;;1.30;0.93;;;25.00;99.90;;;;;;5035322;28;20053;-82
2022/10/23 13:10:04;;;;;;;1.42;1.00;;;25.20;99.90;;;;;;4994303;28;20084;-82
2022/10/23 13:12:34;;;;;;;0.80;0.70;;;25.40;99.90;;;;;;5041222;28;20041;-83